sensor_id;sensor_type;location;lat;lon;timestamp;pressure;altitude;pressure_sealevel;temperature;humidity
75157;BME280;63736;50.076;8.198;2023-12-20T00:00:34;99511.91;;;5.09;100.00
75157;BME280;63736;50.076;8.198;2023-12-20T00:02:59;99499.59;;;5.08;100.00
75157;BME280;63736;50.076;8.198;2023-12-20T00:05:24;99501.41;;;5.08;100.00
75157;BME280;63736;50.076;8.198;2023-12-20T00:07:50;99501.31;;;5.09;100.00
75157;BME280;63736;50.076;8.198;2023-12-20T00:10:15;99498.75;;;5.08;100.00
75157;BME280;63736;50.076;8.198;2023-12-20T00:12:40;99501.50;;;5.06;100.00
75157;BME280;63736;50.076;8.198;2023-12-20T00:15:06;99489.97;;;5.07;100.00
75157;BME280;63736;50.076;8.198;2023-12-20T00:17:31;99482.97;;;5.06;100.00
75157;BME280;63736;50.076;8.198;2023-12-20T00:19:56;99481.16;;;5.07;100.00
75157;BME280;63736;50.076;8.198;2023-12-20T00:22:21;99482.97;;;5.06;100.00
75157;BME280;63736;50.076;8.198;2023-12-20T00:24:47;99479.38;;;5.07;100.00
75157;BME280;63736;50.076;8.198;2023-12-20T00:27:12;99485.63;;;5.06;100.00
75157;BME280;63736;50.076;8.198;2023-12-20T00:29:37;99482.22;;;5.04;100.00
75157;BME280;63736;50.076;8.198;2023-12-20T00:32:02;99483.91;;;5.05;100.00
75157;BME280;63736;50.076;8.198;2023-12-20T00:34:27;99481.16;;;5.07;100.00
75157;BME280;63736;50.076;8.198;2023-12-20T00:36:52;99471.53;;;5.06;100.00
75157;BME280;63736;50.076;8.198;2023-12-20T00:39:18;99476.75;;;5.07;100.00
75157;BME280;63736;50.076;8.198;2023-12-20T00:41:43;99474.09;;;5.07;100.00
75157;BME280;63736;50.076;8.198;2023-12-20T00:44:08;99477.69;;;5.06;100.00
75157;BME280;63736;50.076;8.198;2023-12-20T00:46:33;99471.53;;;5.06;100.00
75157;BME280;63736;50.076;8.198;2023-12-20T00:48:58;99474.94;;;5.08;100.00
75157;BME280;63736;50.076;8.198;2023-12-20T00:51:24;99470.56;;;5.07;100.00
75157;BME280;63736;50.076;8.198;2023-12-20T00:53:49;99472.38;;;5.06;100.00
75157;BME280;63736;50.076;8.198;2023-12-20T00:56:15;99460.94;;;5.06;100.00
75157;BME280;63736;50.076;8.198;2023-12-20T00:58:40;99461.78;;;5.06;100.00
75157;BME280;63736;50.076;8.198;2023-12-20T01:01:05;99460.00;;;5.07;100.00
75157;BME280;63736;50.076;8.198;2023-12-20T01:03:30;99449.41;;;5.07;100.00
75157;BME280;63736;50.076;8.198;2023-12-20T01:05:55;99451.09;;;5.08;100.00
75157;BME280;63736;50.076;8.198;2023-12-20T01:08:20;99448.47;;;5.08;100.00
75157;BME280;63736;50.076;8.198;2023-12-20T01:10:46;99447.53;;;5.09;100.00
75157;BME280;63736;50.076;8.198;2023-12-20T01:13:11;99445.72;;;5.09;100.00
75157;BME280;63736;50.076;8.198;2023-12-20T01:15:37;99446.47;;;5.11;100.00
75157;BME280;63736;50.076;8.198;2023-12-20T01:18:02;99451.88;;;5.10;100.00
75157;BME280;63736;50.076;8.198;2023-12-20T01:20:27;99447.31;;;5.12;100.00
75157;BME280;63736;50.076;8.198;2023-12-20T01:22:52;99456.97;;;5.13;100.00
75157;BME280;63736;50.076;8.198;2023-12-20T01:25:17;99454.22;;;5.15;100.00
75157;BME280;63736;50.076;8.198;2023-12-20T01:27:43;99458.69;;;5.14;100.00
75157;BME280;63736;50.076;8.198;2023-12-20T01:30:08;99454.41;;;5.11;100.00
75157;BME280;63736;50.076;8.198;2023-12-20T01:32:33;99453.47;;;5.12;100.00
75157;BME280;63736;50.076;8.198;2023-12-20T01:34:58;99451.78;;;5.11;100.00
75157;BME280;63736;50.076;8.198;2023-12-20T01:37:23;99457.06;;;5.11;100.00
75157;BME280;63736;50.076;8.198;2023-12-20T01:39:50;99459.72;;;5.11;100.00
75157;BME280;63736;50.076;8.198;2023-12-20T01:42:15;99468.50;;;5.12;100.00
75157;BME280;63736;50.076;8.198;2023-12-20T01:44:40;99476.34;;;5.13;100.00
75157;BME280;63736;50.076;8.198;2023-12-20T01:47:05;99477.09;;;5.16;100.00
75157;BME280;63736;50.076;8.198;2023-12-20T01:49:31;99492.91;;;5.17;100.00
75157;BME280;63736;50.076;8.198;2023-12-20T01:51:56;99484.00;;;5.18;100.00
75157;BME280;63736;50.076;8.198;2023-12-20T01:54:21;99479.47;;;5.20;100.00
75157;BME280;63736;50.076;8.198;2023-12-20T01:56:47;99455.66;;;5.20;100.00
75157;BME280;63736;50.076;8.198;2023-12-20T01:59:13;99473.22;;;5.21;100.00
75157;BME280;63736;50.076;8.198;2023-12-20T02:01:38;99479.56;;;5.19;100.00
75157;BME280;63736;50.076;8.198;2023-12-20T02:04:04;99477.00;;;5.17;100.00
75157;BME280;63736;50.076;8.198;2023-12-20T02:06:29;99457.63;;;5.17;100.00
75157;BME280;63736;50.076;8.198;2023-12-20T02:08:56;99449.78;;;5.15;100.00
75157;BME280;63736;50.076;8.198;2023-12-20T02:11:22;99449.69;;;5.17;100.00
75157;BME280;63736;50.076;8.198;2023-12-20T02:13:47;99447.97;;;5.16;100.00
75157;BME280;63736;50.076;8.198;2023-12-20T02:16:12;99439.19;;;5.15;100.00
75157;BME280;63736;50.076;8.198;2023-12-20T02:18:37;99445.44;;;5.14;100.00
75157;BME280;63736;50.076;8.198;2023-12-20T02:21:04;99445.53;;;5.12;100.00
75157;BME280;63736;50.076;8.198;2023-12-20T02:23:29;99437.66;;;5.11;100.00
75157;BME280;63736;50.076;8.198;2023-12-20T02:25:55;99451.78;;;5.11;100.00
75157;BME280;63736;50.076;8.198;2023-12-20T02:28:20;99446.47;;;5.11;100.00
75157;BME280;63736;50.076;8.198;2023-12-20T02:30:46;99450.06;;;5.10;100.00
75157;BME280;63736;50.076;8.198;2023-12-20T02:33:12;99456.19;;;5.11;100.00
75157;BME280;63736;50.076;8.198;2023-12-20T02:35:37;99455.38;;;5.10;100.00
75157;BME280;63736;50.076;8.198;2023-12-20T02:38:02;99454.41;;;5.11;100.00
75157;BME280;63736;50.076;8.198;2023-12-20T02:40:27;99455.16;;;5.13;100.00
75157;BME280;63736;50.076;8.198;2023-12-20T02:42:53;99458.69;;;5.14;100.00
75157;BME280;63736;50.076;8.198;2023-12-20T02:45:18;99455.81;;;5.17;100.00
75157;BME280;63736;50.076;8.198;2023-12-20T02:47:43;99458.47;;;5.17;100.00
75157;BME280;63736;50.076;8.198;2023-12-20T02:50:08;99450.34;;;5.20;100.00
75157;BME280;63736;50.076;8.198;2023-12-20T02:52:33;99452.91;;;5.22;100.00
75157;BME280;63736;50.076;8.198;2023-12-20T02:54:58;99457.06;;;5.26;100.00
75157;BME280;63736;50.076;8.198;2023-12-20T02:57:24;99463.13;;;5.28;100.00
75157;BME280;63736;50.076;8.198;2023-12-20T02:59:49;99461.19;;;5.30;100.00
75157;BME280;63736;50.076;8.198;2023-12-20T03:02:14;99477.84;;;5.32;100.00
75157;BME280;63736;50.076;8.198;2023-12-20T03:04:40;99463.66;;;5.33;100.00
75157;BME280;63736;50.076;8.198;2023-12-20T03:07:05;99457.31;;;5.36;100.00
75157;BME280;63736;50.076;8.198;2023-12-20T03:09:30;99456.34;;;5.37;100.00
75157;BME280;63736;50.076;8.198;2023-12-20T03:11:55;99450.22;;;5.36;100.00
75157;BME280;63736;50.076;8.198;2023-12-20T03:14:20;99457.31;;;5.36;100.00
75157;BME280;63736;50.076;8.198;2023-12-20T03:16:49;99463.56;;;5.35;100.00
75157;BME280;63736;50.076;8.198;2023-12-20T03:19:15;99471.59;;;5.33;100.00
75157;BME280;63736;50.076;8.198;2023-12-20T03:21:40;99466.50;;;5.30;100.00
75157;BME280;63736;50.076;8.198;2023-12-20T03:24:05;99474.53;;;5.28;100.00
75157;BME280;63736;50.076;8.198;2023-12-20T03:26:30;99477.28;;;5.27;100.00
75157;BME280;63736;50.076;8.198;2023-12-20T03:28:55;99481.66;;;5.28;100.00
75157;BME280;63736;50.076;8.198;2023-12-20T03:31:20;99489.59;;;5.28;100.00
75157;BME280;63736;50.076;8.198;2023-12-20T03:33:46;99490.53;;;5.27;100.00
75157;BME280;63736;50.076;8.198;2023-12-20T03:36:12;99490.53;;;5.27;100.00
75157;BME280;63736;50.076;8.198;2023-12-20T03:38:37;99494.91;;;5.28;100.00
75157;BME280;63736;50.076;8.198;2023-12-20T03:41:02;99493.09;;;5.28;100.00
75157;BME280;63736;50.076;8.198;2023-12-20T03:43:27;99502.63;;;5.31;100.00
75157;BME280;63736;50.076;8.198;2023-12-20T03:45:52;99491.09;;;5.32;100.00
75157;BME280;63736;50.076;8.198;2023-12-20T03:48:17;99505.19;;;5.33;100.00
75157;BME280;63736;50.076;8.198;2023-12-20T03:50:43;99505.84;;;5.36;100.00
75157;BME280;63736;50.076;8.198;2023-12-20T03:53:08;99500.56;;;5.36;100.00
75157;BME280;63736;50.076;8.198;2023-12-20T03:55:33;99503.00;;;5.39;100.00
75157;BME280;63736;50.076;8.198;2023-12-20T03:57:58;99502.88;;;5.41;100.00
75157;BME280;63736;50.076;8.198;2023-12-20T04:00:23;99491.47;;;5.40;100.00
75157;BME280;63736;50.076;8.198;2023-12-20T04:02:49;99500.91;;;5.44;100.00
75157;BME280;63736;50.076;8.198;2023-12-20T04:05:14;99503.56;;;5.44;100.00
75157;BME280;63736;50.076;8.198;2023-12-20T04:07:39;99506.09;;;5.46;100.00
75157;BME280;63736;50.076;8.198;2023-12-20T04:10:04;99500.72;;;5.48;100.00
75157;BME280;63736;50.076;8.198;2023-12-20T04:12:30;99504.13;;;5.50;100.00
75157;BME280;63736;50.076;8.198;2023-12-20T04:14:56;99502.41;;;5.49;100.00
75157;BME280;63736;50.076;8.198;2023-12-20T04:17:21;99506.03;;;5.48;100.00
75157;BME280;63736;50.076;8.198;2023-12-20T04:19:48;99512.16;;;5.48;100.00
75157;BME280;63736;50.076;8.198;2023-12-20T04:22:13;99510.34;;;5.49;100.00
75157;BME280;63736;50.076;8.198;2023-12-20T04:24:38;99520.88;;;5.50;100.00
75157;BME280;63736;50.076;8.198;2023-12-20T04:27:03;99520.00;;;5.50;100.00
75157;BME280;63736;50.076;8.198;2023-12-20T04:29:29;99521.53;;;5.54;100.00
75157;BME280;63736;50.076;8.198;2023-12-20T04:31:54;99519.44;;;5.59;100.00
75157;BME280;63736;50.076;8.198;2023-12-20T04:34:19;99520.66;;;5.68;100.00
75157;BME280;63736;50.076;8.198;2023-12-20T04:36:44;99534.56;;;5.71;100.00
75157;BME280;63736;50.076;8.198;2023-12-20T04:39:11;99535.97;;;5.77;100.00
75157;BME280;63736;50.076;8.198;2023-12-20T04:41:36;99538.31;;;5.82;100.00
75157;BME280;63736;50.076;8.198;2023-12-20T04:44:02;99551.16;;;5.88;100.00
75157;BME280;63736;50.076;8.198;2023-12-20T04:46:27;99543.97;;;5.90;100.00
75157;BME280;63736;50.076;8.198;2023-12-20T04:48:52;99546.63;;;5.90;100.00
75157;BME280;63736;50.076;8.198;2023-12-20T04:51:17;99561.88;;;5.86;100.00
75157;BME280;63736;50.076;8.198;2023-12-20T04:53:42;99562.56;;;5.75;100.00
75157;BME280;63736;50.076;8.198;2023-12-20T04:56:08;99569.50;;;5.63;100.00
75157;BME280;63736;50.076;8.198;2023-12-20T04:58:33;99574.91;;;5.48;100.00
75157;BME280;63736;50.076;8.198;2023-12-20T05:00:58;99575.75;;;5.34;100.00
75157;BME280;63736;50.076;8.198;2023-12-20T05:03:23;99574.81;;;5.20;100.00
75157;BME280;63736;50.076;8.198;2023-12-20T05:05:49;99569.31;;;5.09;100.00
75157;BME280;63736;50.076;8.198;2023-12-20T05:08:14;99574.19;;;5.01;100.00
75157;BME280;63736;50.076;8.198;2023-12-20T05:10:39;99577.91;;;4.98;100.00
75157;BME280;63736;50.076;8.198;2023-12-20T05:13:05;99571.25;;;4.91;100.00
75157;BME280;63736;50.076;8.198;2023-12-20T05:15:30;99569.56;;;4.90;100.00
75157;BME280;63736;50.076;8.198;2023-12-20T05:17:55;99573.34;;;4.86;100.00
75157;BME280;63736;50.076;8.198;2023-12-20T05:20:20;99569.16;;;4.82;100.00
75157;BME280;63736;50.076;8.198;2023-12-20T05:22:46;99573.13;;;4.89;100.00
75157;BME280;63736;50.076;8.198;2023-12-20T05:25:12;99572.97;;;4.92;100.00
75157;BME280;63736;50.076;8.198;2023-12-20T05:27:37;99574.59;;;4.94;100.00
75157;BME280;63736;50.076;8.198;2023-12-20T05:30:02;99572.78;;;4.95;100.00
75157;BME280;63736;50.076;8.198;2023-12-20T05:32:29;99568.41;;;4.94;100.00
75157;BME280;63736;50.076;8.198;2023-12-20T05:34:54;99573.91;;;4.91;100.00
75157;BME280;63736;50.076;8.198;2023-12-20T05:37:19;99569.75;;;4.87;100.00
75157;BME280;63736;50.076;8.198;2023-12-20T05:39:45;99564.91;;;4.79;100.00
75157;BME280;63736;50.076;8.198;2023-12-20T05:42:10;99563.75;;;4.69;100.00
75157;BME280;63736;50.076;8.198;2023-12-20T05:44:35;99573.94;;;4.60;100.00
75157;BME280;63736;50.076;8.198;2023-12-20T05:47:01;99579.69;;;4.53;100.00
75157;BME280;63736;50.076;8.198;2023-12-20T05:49:26;99586.16;;;4.47;100.00
75157;BME280;63736;50.076;8.198;2023-12-20T05:51:51;99581.22;;;4.41;100.00
75157;BME280;63736;50.076;8.198;2023-12-20T05:54:17;99585.06;;;4.35;100.00
75157;BME280;63736;50.076;8.198;2023-12-20T05:56:42;99588.00;;;4.30;100.00
75157;BME280;63736;50.076;8.198;2023-12-20T05:59:07;99591.72;;;4.26;100.00
75157;BME280;63736;50.076;8.198;2023-12-20T06:01:33;99597.22;;;4.23;100.00
75157;BME280;63736;50.076;8.198;2023-12-20T06:03:58;99588.78;;;4.17;100.00
75157;BME280;63736;50.076;8.198;2023-12-20T06:06:23;99597.03;;;4.10;100.00
75157;BME280;63736;50.076;8.198;2023-12-20T06:08:48;99591.16;;;4.05;100.00
75157;BME280;63736;50.076;8.198;2023-12-20T06:11:14;99596.78;;;3.99;100.00
75157;BME280;63736;50.076;8.198;2023-12-20T06:13:39;99604.38;;;3.89;100.00
75157;BME280;63736;50.076;8.198;2023-12-20T06:16:05;99611.19;;;3.77;100.00
75157;BME280;63736;50.076;8.198;2023-12-20T06:18:31;99614.34;;;3.68;100.00
75157;BME280;63736;50.076;8.198;2023-12-20T06:20:56;99628.97;;;3.58;100.00
75157;BME280;63736;50.076;8.198;2023-12-20T06:23:21;99622.38;;;3.49;100.00
75157;BME280;63736;50.076;8.198;2023-12-20T06:25:46;99620.75;;;3.46;100.00
75157;BME280;63736;50.076;8.198;2023-12-20T06:28:11;99612.75;;;3.48;100.00
75157;BME280;63736;50.076;8.198;2023-12-20T06:30:39;99615.41;;;3.48;100.00
75157;BME280;63736;50.076;8.198;2023-12-20T06:33:05;99593.44;;;3.47;100.00
75157;BME280;63736;50.076;8.198;2023-12-20T06:35:31;99584.81;;;3.44;100.00
75157;BME280;63736;50.076;8.198;2023-12-20T06:37:56;99593.75;;;3.41;100.00
75157;BME280;63736;50.076;8.198;2023-12-20T06:40:22;99599.25;;;3.37;100.00
75157;BME280;63736;50.076;8.198;2023-12-20T06:42:47;99597.63;;;3.34;100.00
75157;BME280;63736;50.076;8.198;2023-12-20T06:45:12;99605.13;;;3.26;100.00
75157;BME280;63736;50.076;8.198;2023-12-20T06:47:37;99604.41;;;3.22;100.00
75157;BME280;63736;50.076;8.198;2023-12-20T06:50:02;99613.53;;;3.17;100.00
75157;BME280;63736;50.076;8.198;2023-12-20T06:52:28;99613.75;;;3.12;100.00
75157;BME280;63736;50.076;8.198;2023-12-20T06:54:53;99621.03;;;3.07;100.00
75157;BME280;63736;50.076;8.198;2023-12-20T06:57:18;99623.84;;;3.04;100.00
75157;BME280;63736;50.076;8.198;2023-12-20T06:59:45;99627.41;;;3.03;100.00
75157;BME280;63736;50.076;8.198;2023-12-20T07:02:10;99625.03;;;2.98;100.00
75157;BME280;63736;50.076;8.198;2023-12-20T07:04:41;99644.50;;;2.95;100.00
75157;BME280;63736;50.076;8.198;2023-12-20T07:07:06;99632.31;;;2.93;100.00
75157;BME280;63736;50.076;8.198;2023-12-20T07:09:32;99632.25;;;2.94;100.00
75157;BME280;63736;50.076;8.198;2023-12-20T07:11:57;99635.72;;;2.95;100.00
75157;BME280;63736;50.076;8.198;2023-12-20T07:14:23;99636.50;;;2.97;100.00
75157;BME280;63736;50.076;8.198;2023-12-20T07:16:48;99656.69;;;2.98;100.00
75157;BME280;63736;50.076;8.198;2023-12-20T07:19:13;99663.44;;;3.04;100.00
75157;BME280;63736;50.076;8.198;2023-12-20T07:21:38;99657.69;;;3.13;100.00
75157;BME280;63736;50.076;8.198;2023-12-20T07:24:04;99667.53;;;3.27;100.00
75157;BME280;63736;50.076;8.198;2023-12-20T07:26:29;99664.25;;;3.39;100.00
75157;BME280;63736;50.076;8.198;2023-12-20T07:28:54;99658.34;;;3.52;100.00
75157;BME280;63736;50.076;8.198;2023-12-20T07:31:19;99660.41;;;3.62;100.00
75157;BME280;63736;50.076;8.198;2023-12-20T07:33:44;99666.06;;;3.72;100.00
75157;BME280;63736;50.076;8.198;2023-12-20T07:36:10;99659.44;;;3.81;100.00
75157;BME280;63736;50.076;8.198;2023-12-20T07:38:35;99656.31;;;3.90;100.00
75157;BME280;63736;50.076;8.198;2023-12-20T07:41:00;99652.22;;;4.01;100.00
75157;BME280;63736;50.076;8.198;2023-12-20T07:43:25;99661.31;;;4.11;100.00
75157;BME280;63736;50.076;8.198;2023-12-20T07:45:50;99661.88;;;4.18;100.00
75157;BME280;63736;50.076;8.198;2023-12-20T07:48:16;99675.59;;;4.24;100.00
75157;BME280;63736;50.076;8.198;2023-12-20T07:50:41;99677.63;;;4.35;100.00
75157;BME280;63736;50.076;8.198;2023-12-20T07:53:07;99674.09;;;4.67;100.00
75157;BME280;63736;50.076;8.198;2023-12-20T07:55:32;99669.84;;;5.25;100.00
75157;BME280;63736;50.076;8.198;2023-12-20T07:57:57;99666.50;;;5.81;100.00
75157;BME280;63736;50.076;8.198;2023-12-20T08:00:23;99664.78;;;5.94;100.00
75157;BME280;63736;50.076;8.198;2023-12-20T08:02:48;99667.75;;;5.75;100.00
75157;BME280;63736;50.076;8.198;2023-12-20T08:05:13;99663.97;;;5.65;100.00
75157;BME280;63736;50.076;8.198;2023-12-20T08:07:38;99660.91;;;5.56;100.00
75157;BME280;63736;50.076;8.198;2023-12-20T08:10:04;99665.38;;;5.56;100.00
75157;BME280;63736;50.076;8.198;2023-12-20T08:12:29;99668.13;;;5.54;100.00
75157;BME280;63736;50.076;8.198;2023-12-20T08:14:54;99663.38;;;5.45;100.00
75157;BME280;63736;50.076;8.198;2023-12-20T08:17:19;99672.81;;;5.35;100.00
75157;BME280;63736;50.076;8.198;2023-12-20T08:19:45;99675.81;;;5.28;100.00
75157;BME280;63736;50.076;8.198;2023-12-20T08:22:10;99672.41;;;5.26;100.00
75157;BME280;63736;50.076;8.198;2023-12-20T08:24:35;99672.25;;;5.29;100.00
75157;BME280;63736;50.076;8.198;2023-12-20T08:27:01;99675.63;;;5.32;100.00
75157;BME280;63736;50.076;8.198;2023-12-20T08:29:26;99674.13;;;5.42;100.00
75157;BME280;63736;50.076;8.198;2023-12-20T08:31:54;99681.06;;;5.44;100.00
75157;BME280;63736;50.076;8.198;2023-12-20T08:34:20;99682.19;;;5.40;100.00
75157;BME280;63736;50.076;8.198;2023-12-20T08:36:45;99688.53;;;5.38;100.00
75157;BME280;63736;50.076;8.198;2023-12-20T08:39:10;99692.97;;;5.37;100.00
75157;BME280;63736;50.076;8.198;2023-12-20T08:41:35;99692.88;;;5.39;100.00
75157;BME280;63736;50.076;8.198;2023-12-20T08:44:01;99691.94;;;5.40;100.00
75157;BME280;63736;50.076;8.198;2023-12-20T08:46:27;99683.81;;;5.43;100.00
75157;BME280;63736;50.076;8.198;2023-12-20T08:48:52;99689.69;;;5.48;100.00
75157;BME280;63736;50.076;8.198;2023-12-20T08:51:17;99684.00;;;5.54;100.00
75157;BME280;63736;50.076;8.198;2023-12-20T08:53:42;99683.34;;;5.65;100.00
75157;BME280;63736;50.076;8.198;2023-12-20T08:56:10;99691.88;;;5.85;100.00
75157;BME280;63736;50.076;8.198;2023-12-20T08:58:35;99686.88;;;5.94;100.00
75157;BME280;63736;50.076;8.198;2023-12-20T09:01:01;99687.47;;;6.00;100.00
75157;BME280;63736;50.076;8.198;2023-12-20T09:03:26;99690.13;;;6.00;100.00
75157;BME280;63736;50.076;8.198;2023-12-20T09:05:51;99691.91;;;5.99;100.00
75157;BME280;63736;50.076;8.198;2023-12-20T09:08:16;99682.16;;;6.00;100.00
75157;BME280;63736;50.076;8.198;2023-12-20T09:10:41;99687.38;;;6.01;100.00
75157;BME280;63736;50.076;8.198;2023-12-20T09:13:07;99679.03;;;6.07;100.00
75157;BME280;63736;50.076;8.198;2023-12-20T09:15:32;99679.28;;;6.17;100.00
75157;BME280;63736;50.076;8.198;2023-12-20T09:17:59;99678.13;;;6.21;100.00
75157;BME280;63736;50.076;8.198;2023-12-20T09:20:24;99670.28;;;6.20;100.00
75157;BME280;63736;50.076;8.198;2023-12-20T09:22:49;99668.47;;;6.20;100.00
75157;BME280;63736;50.076;8.198;2023-12-20T09:25:14;99665.53;;;6.25;100.00
75157;BME280;63736;50.076;8.198;2023-12-20T09:27:40;99668.84;;;6.28;100.00
75157;BME280;63736;50.076;8.198;2023-12-20T09:30:06;99660.59;;;6.33;100.00
75157;BME280;63736;50.076;8.198;2023-12-20T09:32:32;99665.81;;;6.35;100.00
75157;BME280;63736;50.076;8.198;2023-12-20T09:34:57;99678.09;;;6.36;100.00
75157;BME280;63736;50.076;8.198;2023-12-20T09:37:22;99684.84;;;6.41;100.00
75157;BME280;63736;50.076;8.198;2023-12-20T09:39:48;99681.13;;;6.44;100.00
75157;BME280;63736;50.076;8.198;2023-12-20T09:42:14;99696.13;;;6.45;100.00
75157;BME280;63736;50.076;8.198;2023-12-20T09:44:42;99693.34;;;6.47;100.00
75157;BME280;63736;50.076;8.198;2023-12-20T09:47:09;99688.69;;;6.50;100.00
75157;BME280;63736;50.076;8.198;2023-12-20T09:49:34;99693.16;;;6.50;100.00
75157;BME280;63736;50.076;8.198;2023-12-20T09:52:00;99695.81;;;6.50;100.00
75157;BME280;63736;50.076;8.198;2023-12-20T09:54:26;99684.53;;;6.46;100.00
75157;BME280;63736;50.076;8.198;2023-12-20T09:56:51;99694.19;;;6.47;100.00
75157;BME280;63736;50.076;8.198;2023-12-20T09:59:17;99689.84;;;6.46;100.00
75157;BME280;63736;50.076;8.198;2023-12-20T10:01:42;99695.59;;;6.53;100.00
75157;BME280;63736;50.076;8.198;2023-12-20T10:04:08;99694.66;;;6.54;100.00
75157;BME280;63736;50.076;8.198;2023-12-20T10:06:35;99708.94;;;6.66;100.00
75157;BME280;63736;50.076;8.198;2023-12-20T10:09:00;99696.66;;;6.77;100.00
75157;BME280;63736;50.076;8.198;2023-12-20T10:11:26;99699.19;;;6.93;100.00
75157;BME280;63736;50.076;8.198;2023-12-20T10:13:52;99701.66;;;7.09;100.00
75157;BME280;63736;50.076;8.198;2023-12-20T10:16:24;99692.97;;;7.20;100.00
75157;BME280;63736;50.076;8.198;2023-12-20T10:18:49;99685.22;;;7.30;100.00
75157;BME280;63736;50.076;8.198;2023-12-20T10:21:15;99682.38;;;7.46;100.00
75157;BME280;63736;50.076;8.198;2023-12-20T10:23:40;99669.72;;;7.50;100.00
75157;BME280;63736;50.076;8.198;2023-12-20T10:26:05;99668.25;;;7.58;100.00
75157;BME280;63736;50.076;8.198;2023-12-20T10:28:34;99662.28;;;7.68;100.00
75157;BME280;63736;50.076;8.198;2023-12-20T10:30:59;99645.91;;;7.74;100.00
75157;BME280;63736;50.076;8.198;2023-12-20T10:33:24;99660.28;;;7.71;100.00
75157;BME280;63736;50.076;8.198;2023-12-20T10:35:53;99660.81;;;7.64;100.00
75157;BME280;63736;50.076;8.198;2023-12-20T10:38:19;99642.91;;;7.53;100.00
75157;BME280;63736;50.076;8.198;2023-12-20T10:40:45;99648.47;;;7.50;100.00
75157;BME280;63736;50.076;8.198;2023-12-20T10:43:11;99639.53;;;7.51;100.00
75157;BME280;63736;50.076;8.198;2023-12-20T10:45:36;99631.56;;;7.51;100.00
75157;BME280;63736;50.076;8.198;2023-12-20T10:48:02;99631.44;;;7.52;100.00
75157;BME280;63736;50.076;8.198;2023-12-20T10:50:28;99628.03;;;7.50;100.00
75157;BME280;63736;50.076;8.198;2023-12-20T10:52:54;99627.97;;;7.52;100.00
75157;BME280;63736;50.076;8.198;2023-12-20T10:55:21;99624.66;;;7.48;100.00
75157;BME280;63736;50.076;8.198;2023-12-20T10:57:46;99624.53;;;7.50;100.00
75157;BME280;63736;50.076;8.198;2023-12-20T11:00:15;99607.63;;;7.51;100.00
75157;BME280;63736;50.076;8.198;2023-12-20T11:02:42;99608.59;;;7.50;100.00
75157;BME280;63736;50.076;8.198;2023-12-20T11:07:58;99613.06;;;7.49;100.00
75157;BME280;63736;50.076;8.198;2023-12-20T11:10:29;99622.72;;;7.50;100.00
75157;BME280;63736;50.076;8.198;2023-12-20T11:13:06;99626.13;;;7.52;100.00
75157;BME280;63736;50.076;8.198;2023-12-20T11:15:35;99613.16;;;7.60;100.00
75157;BME280;63736;50.076;8.198;2023-12-20T11:18:00;99614.13;;;7.59;100.00
75157;BME280;63736;50.076;8.198;2023-12-20T11:20:38;99601.66;;;7.60;100.00
75157;BME280;63736;50.076;8.198;2023-12-20T11:23:04;99616.44;;;7.64;100.00
75157;BME280;63736;50.076;8.198;2023-12-20T11:25:29;99618.56;;;7.72;100.00
75157;BME280;63736;50.076;8.198;2023-12-20T11:28:10;99634.50;;;7.85;100.00
75157;BME280;63736;50.076;8.198;2023-12-20T11:30:50;99625.22;;;7.90;100.00
75157;BME280;63736;50.076;8.198;2023-12-20T11:33:15;99636.72;;;7.91;100.00
75157;BME280;63736;50.076;8.198;2023-12-20T11:35:41;99612.91;;;7.89;100.00
75157;BME280;63736;50.076;8.198;2023-12-20T11:38:09;99617.38;;;7.89;100.00
75157;BME280;63736;50.076;8.198;2023-12-20T11:40:35;99606.72;;;7.89;100.00
75157;BME280;63736;50.076;8.198;2023-12-20T11:43:01;99619.19;;;7.88;100.00
75157;BME280;63736;50.076;8.198;2023-12-20T11:45:26;99607.69;;;7.88;100.00
75157;BME280;63736;50.076;8.198;2023-12-20T11:47:52;99610.34;;;7.88;100.00
75157;BME280;63736;50.076;8.198;2023-12-20T11:50:22;99603.94;;;7.90;100.00
75157;BME280;63736;50.076;8.198;2023-12-20T11:52:47;99592.03;;;7.96;100.00
75157;BME280;63736;50.076;8.198;2023-12-20T11:55:13;99597.13;;;7.99;100.00
75157;BME280;63736;50.076;8.198;2023-12-20T11:57:38;99591.16;;;7.96;100.00
75157;BME280;63736;50.076;8.198;2023-12-20T12:00:04;99583.53;;;7.91;100.00
75157;BME280;63736;50.076;8.198;2023-12-20T12:02:30;99577.28;;;7.92;100.00
75157;BME280;63736;50.076;8.198;2023-12-20T12:04:55;99575.56;;;7.91;100.00
75157;BME280;63736;50.076;8.198;2023-12-20T12:07:21;99568.41;;;7.91;100.00
75157;BME280;63736;50.076;8.198;2023-12-20T12:09:47;99562.59;;;7.86;100.00
75157;BME280;63736;50.076;8.198;2023-12-20T12:12:12;99554.72;;;7.85;100.00
75157;BME280;63736;50.076;8.198;2023-12-20T12:14:38;99567.50;;;7.80;100.00
75157;BME280;63736;50.076;8.198;2023-12-20T12:17:03;99573.66;;;7.80;100.00
75157;BME280;63736;50.076;8.198;2023-12-20T12:19:28;99574.19;;;7.85;100.00
75157;BME280;63736;50.076;8.198;2023-12-20T12:22:10;99569.59;;;7.87;100.00
75157;BME280;63736;50.076;8.198;2023-12-20T12:24:38;99569.28;;;7.92;100.00
75157;BME280;63736;50.076;8.198;2023-12-20T12:27:05;99575.44;;;7.92;100.00
75157;BME280;63736;50.076;8.198;2023-12-20T12:29:30;99575.22;;;7.96;100.00
75157;BME280;63736;50.076;8.198;2023-12-20T12:31:55;99571.38;;;8.00;100.00
75157;BME280;63736;50.076;8.198;2023-12-20T12:34:21;99564.25;;;8.00;100.00
75157;BME280;63736;50.076;8.198;2023-12-20T12:36:46;99569.69;;;7.99;100.00
75157;BME280;63736;50.076;8.198;2023-12-20T12:39:13;99559.38;;;7.94;100.00
75157;BME280;63736;50.076;8.198;2023-12-20T12:41:40;99566.84;;;7.89;100.00
75157;BME280;63736;50.076;8.198;2023-12-20T12:44:05;99558.22;;;7.85;100.00
75157;BME280;63736;50.076;8.198;2023-12-20T12:46:30;99543.13;;;7.86;100.00
75157;BME280;63736;50.076;8.198;2023-12-20T12:48:56;99536.44;;;7.80;100.00
75157;BME280;63736;50.076;8.198;2023-12-20T12:51:21;99543.25;;;7.84;100.00
75157;BME280;63736;50.076;8.198;2023-12-20T12:53:46;99544.72;;;7.88;100.00